National Geographic Sea Bird — WAK8004 — position and weather

sailwx.info

Track history (hours):
 
Tides and Currents Weather Stations Pressure Air Temp Water Temp Dewpoint Dewpoint Depression Visibility Wind Speed Wind Dir Waves Ship Positions

National Geographic Sea Bird

Owner: Lindblad Expeditions, Inc., SEATTLE, WA. More information available from US FCC via Universal Licensing System and Coast Guard Vessel Documentation Center.

Last reported at 2017-May-25 07:43 UTC. Time now 2017-May-27 02:19 UTC.
Position N 58°21' W 135°57'.

Length 50 m; draft 2.7 m.

Type: Passenger vessel. MMSI: 366892350.

Date/timePositionNaut miles runAvg speedWind from/ knotsBaromVisibWave heightAir tempDewpointWater temp
2017-May-25 07:43N 58°21' W 135°57'2 8.6
2017-May-25 07:29N 58°23' W 135°58'4 7.7
2017-May-25 07:00N 58°26' W 135°56'2 3.2
2017-May-25 06:26N 58°27' W 135°53'0 0.0
2017-May-25 05:59N 58°27' W 135°53'0 0.0
2017-May-25 05:29N 58°27' W 135°53'0 0.0
2017-May-25 04:56N 58°27' W 135°53'0 0.0
2017-May-25 04:26N 58°27' W 135°53'1 1.3
2017-May-25 04:00N 58°27' W 135°54'4 7.2
2017-May-25 03:30N 58°27' W 136°01'610.8
2017-May-25 02:59N 58°32' W 136°05'  
2017-May-16 17:08N 52°34' W 128°30'1 8.3
2017-May-16 16:58N 52°33' W 128°30'4 9.6
2017-May-16 16:30N 52°28' W 128°28'5 9.3
2017-May-16 16:00N 52°24' W 128°30'8 9.9
2017-May-16 15:13N 52°16' W 128°32'310.6
2017-May-16 14:57N 52°16' W 128°28'711.4
2017-May-16 14:22N 52°15' W 128°17'7 8.3
2017-May-16 13:29N 52°11' W 128°07'5 9.7
2017-May-16 13:00N 52°06' W 128°07'710.4
2017-May-16 12:18N 52°04' W 127°56'3 9.7
2017-May-16 12:00N 52°01' W 127°56'510.0
2017-May-16 11:30N 51°56' W 127°56'510.2
2017-May-16 11:00N 51°51' W 127°57'510.2
2017-May-16 10:30N 51°46' W 127°56'510.1
2017-May-16 10:00N 51°41' W 127°54'5 9.8
2017-May-16 09:31N 51°36' W 127°52'5 9.8
2017-May-16 09:00N 51°31' W 127°51'510.0
2017-May-16 08:30N 51°26' W 127°49'4 8.8
2017-May-16 08:00N 51°22' W 127°50'5 8.6
2017-May-16 07:28N 51°18' W 127°53'4 7.8
2017-May-16 06:55N 51°13' W 127°54'4 9.4
2017-May-16 06:28N 51°09' W 127°56'4 9.3
2017-May-16 06:00N 51°06' W 127°53'510.1
2017-May-16 05:30N 51°02' W 127°48'510.2
2017-May-16 05:00N 50°57' W 127°44'510.6
2017-May-16 04:30N 50°54' W 127°38'510.8
2017-May-16 04:00N 50°51' W 127°31'510.8
2017-May-16 03:30N 50°47' W 127°24'510.6
2017-May-16 02:59N 50°43' W 127°18'510.4
2017-May-16 02:30N 50°39' W 127°13'5 9.2
2017-May-16 01:58N 50°37' W 127°06'5 9.4
2017-May-16 01:29N 50°36' W 126°59'2 0.4
2017-May-15 19:46N 50°35' W 126°56'0 1.4
2017-May-15 19:30N 50°35' W 126°56'4 7.7
2017-May-15 19:00N 50°37' W 126°51'2 4.4
2017-May-15 18:30N 50°38' W 126°48'1 0.2
2017-May-15 13:25N 50°39' W 126°47'  
Track history (hours):
 
Tides and Currents Weather Stations Pressure Air Temp Water Temp Dewpoint Dewpoint Depression Visibility Wind Speed Wind Dir Waves Ship Positions

National Geographic Sea Bird

Owner: Lindblad Expeditions, Inc., SEATTLE, WA. More information available from US FCC via Universal Licensing System and Coast Guard Vessel Documentation Center.

Last reported at 2017-May-25 07:43 UTC. Time now 2017-May-27 02:19 UTC.
Position N 58°21' W 135°57'.

Length 50 m; draft 2.7 m.

Type: Passenger vessel. MMSI: 366892350.

Date/timePositionNaut miles runAvg speedWind from/ knotsBaromVisibWave heightAir tempDewpointWater temp
2017-May-25 07:43N 58°21' W 135°57'2 8.6
2017-May-25 07:29N 58°23' W 135°58'4 7.7
2017-May-25 07:00N 58°26' W 135°56'2 3.2
2017-May-25 06:26N 58°27' W 135°53'0 0.0
2017-May-25 05:59N 58°27' W 135°53'0 0.0
2017-May-25 05:29N 58°27' W 135°53'0 0.0
2017-May-25 04:56N 58°27' W 135°53'0 0.0
2017-May-25 04:26N 58°27' W 135°53'1 1.3
2017-May-25 04:00N 58°27' W 135°54'4 7.2
2017-May-25 03:30N 58°27' W 136°01'610.8
2017-May-25 02:59N 58°32' W 136°05'  
2017-May-16 17:08N 52°34' W 128°30'1 8.3
2017-May-16 16:58N 52°33' W 128°30'4 9.6
2017-May-16 16:30N 52°28' W 128°28'5 9.3
2017-May-16 16:00N 52°24' W 128°30'8 9.9
2017-May-16 15:13N 52°16' W 128°32'310.6
2017-May-16 14:57N 52°16' W 128°28'711.4
2017-May-16 14:22N 52°15' W 128°17'7 8.3
2017-May-16 13:29N 52°11' W 128°07'5 9.7
2017-May-16 13:00N 52°06' W 128°07'710.4
2017-May-16 12:18N 52°04' W 127°56'3 9.7
2017-May-16 12:00N 52°01' W 127°56'510.0
2017-May-16 11:30N 51°56' W 127°56'510.2
2017-May-16 11:00N 51°51' W 127°57'510.2
2017-May-16 10:30N 51°46' W 127°56'510.1
2017-May-16 10:00N 51°41' W 127°54'5 9.8
2017-May-16 09:31N 51°36' W 127°52'5 9.8
2017-May-16 09:00N 51°31' W 127°51'510.0
2017-May-16 08:30N 51°26' W 127°49'4 8.8
2017-May-16 08:00N 51°22' W 127°50'5 8.6
2017-May-16 07:28N 51°18' W 127°53'4 7.8
2017-May-16 06:55N 51°13' W 127°54'4 9.4
2017-May-16 06:28N 51°09' W 127°56'4 9.3
2017-May-16 06:00N 51°06' W 127°53'510.1
2017-May-16 05:30N 51°02' W 127°48'510.2
2017-May-16 05:00N 50°57' W 127°44'510.6
2017-May-16 04:30N 50°54' W 127°38'510.8
2017-May-16 04:00N 50°51' W 127°31'510.8
2017-May-16 03:30N 50°47' W 127°24'510.6
2017-May-16 02:59N 50°43' W 127°18'510.4
2017-May-16 02:30N 50°39' W 127°13'5 9.2
2017-May-16 01:58N 50°37' W 127°06'5 9.4
2017-May-16 01:29N 50°36' W 126°59'2 0.4
2017-May-15 19:46N 50°35' W 126°56'0 1.4
2017-May-15 19:30N 50°35' W 126°56'4 7.7
2017-May-15 19:00N 50°37' W 126°51'2 4.4
2017-May-15 18:30N 50°38' W 126°48'1 0.2
2017-May-15 13:25N 50°39' W 126°47'  

Dump ship's entire track history